createdAt,value
2023-04-05T05:39:19.308Z,101371.50
2023-04-05T05:46:43.746Z,101373.28
2023-04-05T05:49:47.848Z,101379.41
2023-04-05T05:52:50.599Z,101365.56
2023-04-05T05:55:53.039Z,101376.00
2023-04-05T05:58:55.885Z,101384.69
2023-04-05T06:01:59.685Z,101384.69
2023-04-05T06:05:03.020Z,101387.28
2023-04-05T06:08:05.982Z,101385.59
2023-04-05T06:11:08.462Z,101394.25
2023-04-05T06:14:11.136Z,101391.66
2023-04-05T06:17:14.933Z,101389.06
2023-04-05T06:20:17.507Z,101391.66
2023-04-05T06:23:19.956Z,101394.25
2023-04-05T06:26:27.118Z,101393.38
2023-04-05T06:29:29.601Z,101391.63
2023-04-05T06:32:33.448Z,101386.38
2023-04-05T06:35:36.022Z,101384.63
2023-04-05T06:38:38.652Z,101390.66
2023-04-05T06:41:41.361Z,101390.69
2023-04-05T06:44:43.807Z,101390.66
2023-04-05T06:47:47.662Z,101389.75
2023-04-05T06:50:57.994Z,101395.81
2023-04-05T06:54:00.563Z,101392.34
2023-04-05T06:57:03.040Z,101380.13
2023-04-05T07:00:10.711Z,101383.56
2023-04-05T07:03:14.563Z,101380.16
2023-04-05T07:06:17.074Z,101391.50
2023-04-05T07:09:20.611Z,101394.16
2023-04-05T07:12:23.062Z,101388.91
2023-04-05T07:15:25.961Z,101394.06
2023-04-05T07:18:30.786Z,101387.19
2023-04-05T07:21:33.314Z,101388.94
2023-04-05T07:24:35.978Z,101397.63
2023-04-05T07:27:39.750Z,101393.28
2023-04-05T07:30:42.602Z,101389.72
2023-04-05T07:33:46.528Z,101396.59
2023-04-05T07:36:50.382Z,101392.25
2023-04-05T07:39:52.853Z,101397.41
2023-04-05T07:42:55.832Z,101389.63
2023-04-05T07:46:02.790Z,101391.34
2023-04-05T07:49:06.678Z,101395.59
2023-04-05T07:52:09.157Z,101393.81
2023-04-05T07:55:12.189Z,101400.00
2023-04-05T07:58:15.927Z,101399.91
2023-04-05T08:01:18.664Z,101396.19
2023-04-05T08:04:22.606Z,101403.06
2023-04-05T08:07:25.278Z,101402.25
2023-04-05T08:10:28.054Z,101390.13
2023-04-05T08:13:30.643Z,101397.63
2023-04-05T08:16:33.741Z,101395.59
2023-04-05T08:19:37.597Z,101390.25
2023-04-05T08:22:40.089Z,101396.16
2023-04-05T08:25:42.802Z,101397.97
2023-04-05T08:28:45.517Z,101404.25
2023-04-05T08:31:48.028Z,101401.38
2023-04-05T08:34:51.899Z,101403.22
2023-04-05T08:37:54.393Z,101402.69
2023-04-05T08:40:56.912Z,101400.00
2023-04-05T08:44:02.879Z,101394.72
2023-04-05T08:47:05.887Z,101397.53
2023-04-05T08:50:13.535Z,101391.41
2023-04-05T08:53:16.048Z,101388.88
2023-04-05T08:56:22.808Z,101392.38
2023-04-05T08:59:25.720Z,101401.09
2023-04-05T09:02:29.224Z,101401.03
2023-04-05T09:05:33.430Z,101396.66
2023-04-05T09:08:35.924Z,101399.09
2023-04-05T09:11:38.900Z,101395.69
2023-04-05T09:14:42.955Z,101397.31
2023-04-05T09:17:45.672Z,101391.91
2023-04-05T09:20:49.579Z,101393.28
2023-04-05T09:23:53.897Z,101396.03
2023-04-05T09:27:05.612Z,101386.50
2023-04-05T09:30:22.275Z,101393.44
2023-04-05T09:33:25.756Z,101389.03
2023-04-05T09:36:29.614Z,101387.34
2023-04-05T09:39:33.673Z,101384.09
2023-04-05T09:42:45.899Z,101384.97
2023-04-05T09:45:48.409Z,101391.66
2023-04-05T09:48:51.411Z,101405.69
2023-04-05T09:51:55.400Z,101401.22
2023-04-05T09:54:59.789Z,101395.25
2023-04-05T09:58:03.211Z,101395.53
2023-04-05T10:04:09.053Z,101396.53
2023-04-05T10:07:14.432Z,101401.00
2023-04-05T10:10:16.917Z,101392.47
2023-04-05T10:13:20.486Z,101395.34
2023-04-05T10:16:27.450Z,101394.09
2023-04-05T10:19:35.265Z,101391.41
2023-04-05T10:22:45.297Z,101383.91
2023-04-05T10:25:54.521Z,101383.78
2023-04-05T10:29:02.760Z,101388.50
2023-04-05T10:32:14.808Z,101383.22
2023-04-05T10:35:19.061Z,101387.72
2023-04-05T10:38:26.010Z,101379.84
2023-04-05T10:41:31.411Z,101377.81
2023-04-05T10:44:37.070Z,101386.06
2023-04-05T10:47:44.263Z,101379.63
2023-04-05T10:50:48.753Z,101378.13
2023-04-05T10:53:52.955Z,101386.25
2023-04-05T10:56:56.592Z,101380.69
2023-04-05T11:00:01.071Z,101383.00
2023-04-05T11:03:03.610Z,101378.56
2023-04-05T11:06:19.918Z,101380.03
2023-04-05T11:09:25.987Z,101378.97
2023-04-05T11:13:09.009Z,101373.94
2023-04-05T11:16:11.764Z,101367.28
2023-04-05T11:19:14.264Z,101366.13
2023-04-05T11:22:27.158Z,101371.28
2023-04-05T11:25:31.328Z,101362.06
2023-04-05T11:28:37.727Z,101355.88
2023-04-05T11:31:59.404Z,101356.22
2023-04-05T11:35:06.631Z,101353.19
2023-04-05T11:38:09.464Z,101342.91
2023-04-05T11:41:17.630Z,101351.25
2023-04-05T11:44:20.656Z,101346.97
2023-04-05T11:47:23.230Z,101345.44
2023-04-05T11:50:26.314Z,101349.44
2023-04-05T11:53:28.795Z,101346.44
2023-04-05T11:56:32.609Z,101354.66
2023-04-05T11:59:36.656Z,101355.41
2023-04-05T12:02:44.785Z,101358.59
2023-04-05T12:05:51.462Z,101364.66
2023-04-05T12:08:55.951Z,101355.38
2023-04-05T12:11:59.784Z,101361.25
2023-04-05T12:15:03.239Z,101357.63
2023-04-05T12:18:07.859Z,101353.06
2023-04-05T12:21:11.241Z,101343.13
2023-04-05T12:24:13.907Z,101347.91
2023-04-05T12:27:18.073Z,101338.50
2023-04-05T12:30:22.150Z,101324.28
2023-04-05T12:33:28.471Z,101313.94
2023-04-05T12:36:32.555Z,101311.78
2023-04-05T12:39:35.052Z,101311.13
2023-04-05T12:42:40.451Z,101299.97
2023-04-05T12:45:44.460Z,101299.03
2023-04-05T12:48:51.561Z,101288.38
2023-04-05T12:51:54.025Z,101287.94
2023-04-05T12:54:56.809Z,101278.78
2023-04-05T12:58:03.770Z,101293.72
2023-04-05T13:01:06.565Z,101295.59
2023-04-05T13:04:15.927Z,101281.28
2023-04-05T13:07:19.282Z,101282.38
2023-04-05T13:10:22.888Z,101283.81
2023-04-05T13:13:26.658Z,101281.84
2023-04-05T13:16:29.148Z,101282.81
2023-04-05T13:19:31.669Z,101279.34
2023-04-05T13:22:34.360Z,101279.69
2023-04-05T13:25:36.823Z,101270.97
2023-04-05T13:28:40.605Z,101258.03
2023-04-05T13:31:43.192Z,101263.94
2023-04-05T13:34:45.772Z,101261.69
2023-04-05T13:37:49.627Z,101254.63
2023-04-05T13:40:52.121Z,101258.13
2023-04-05T13:43:55.943Z,101261.97
2023-04-05T13:46:58.423Z,101256.06
2023-04-05T13:50:00.979Z,101246.94
2023-04-05T13:53:03.437Z,101246.31
2023-04-05T13:56:06.504Z,101239.06
2023-04-05T13:59:10.345Z,101239.50
2023-04-05T14:02:12.931Z,101241.19
2023-04-05T14:05:17.125Z,101223.97
2023-04-05T14:08:19.992Z,101218.06
2023-04-05T14:11:23.025Z,101212.19
2023-04-05T14:14:27.049Z,101195.28
2023-04-05T14:17:29.683Z,101201.84
2023-04-05T14:20:32.196Z,101200.06
2023-04-05T14:23:34.696Z,101201.00
2023-04-05T14:26:37.722Z,101192.63
2023-04-05T14:29:41.515Z,101194.56
2023-04-05T14:32:45.176Z,101195.72
2023-04-05T14:35:47.797Z,101199.91
2023-04-05T14:38:50.322Z,101199.97
2023-04-05T14:41:54.135Z,101200.22
2023-04-05T14:44:58.157Z,101194.81
2023-04-05T14:48:01.215Z,101193.63
2023-04-05T14:51:03.971Z,101183.31
2023-04-05T14:54:07.243Z,101178.94
2023-04-05T14:57:09.692Z,101176.50
2023-04-05T15:00:14.876Z,101178.44
2023-04-05T15:03:19.506Z,101179.56
2023-04-05T15:06:22.394Z,101184.00
2023-04-05T15:09:24.905Z,101174.44
2023-04-05T15:12:27.475Z,101171.97
2023-04-05T15:15:32.763Z,101175.34
2023-04-05T15:18:35.219Z,101175.94
2023-04-05T15:21:39.028Z,101167.66
2023-04-05T15:24:42.806Z,101166.91
2023-04-05T15:27:45.395Z,101165.03
2023-04-05T15:30:51.205Z,101166.03
2023-04-05T15:33:53.695Z,101166.88
2023-04-05T15:36:56.647Z,101162.97
2023-04-05T15:40:00.619Z,101167.69
2023-04-05T15:43:04.342Z,101163.47
2023-04-05T15:46:08.122Z,101160.72
2023-04-05T15:49:13.645Z,101170.09
2023-04-05T15:52:17.641Z,101162.06
2023-04-05T15:55:20.382Z,101151.91
2023-04-05T15:58:22.849Z,101156.09
2023-04-05T16:01:26.698Z,101160.31
2023-04-05T16:04:30.482Z,101154.22
2023-04-05T16:07:33.006Z,101154.47
2023-04-05T16:10:35.528Z,101144.41
2023-04-05T16:13:38.045Z,101141.91
2023-04-05T16:16:53.299Z,101153.91
2023-04-05T16:19:57.483Z,101150.59
2023-04-05T16:22:59.994Z,101150.75
2023-04-05T16:26:02.816Z,101150.81
2023-04-05T16:29:05.480Z,101146.22
2023-04-05T16:32:09.396Z,101155.00
2023-04-05T16:35:11.934Z,101150.00
2023-04-05T16:38:14.463Z,101147.72
2023-04-05T16:41:16.936Z,101149.53
2023-04-05T16:44:19.411Z,101146.94
2023-04-05T16:47:23.343Z,101147.13
2023-04-05T16:50:25.834Z,101143.78
2023-04-05T16:53:28.291Z,101146.59
2023-04-05T16:56:30.936Z,101144.03
2023-04-05T16:59:33.481Z,101151.84
2023-04-05T17:02:37.404Z,101136.25
2023-04-05T17:05:39.898Z,101151.19
2023-04-05T17:08:42.945Z,101153.03
2023-04-05T17:11:45.416Z,101141.75
2023-04-05T17:14:47.863Z,101144.53
2023-04-05T17:17:51.840Z,101143.78
2023-04-05T17:20:54.361Z,101142.03
2023-04-05T17:23:56.810Z,101149.00
2023-04-05T17:26:59.250Z,101149.09
2023-04-05T17:30:01.983Z,101149.13
2023-04-05T17:33:05.932Z,101153.59
2023-04-05T17:36:08.781Z,101154.63
2023-04-05T17:39:11.276Z,101159.91
2023-04-05T17:42:13.754Z,101157.31
2023-04-05T17:45:16.217Z,101159.03
2023-04-05T17:48:20.146Z,101159.13
2023-04-05T17:51:22.968Z,101161.72
2023-04-05T17:54:25.498Z,101162.59
2023-04-05T17:57:27.971Z,101165.16
2023-04-05T18:00:30.730Z,101170.47
2023-04-05T18:03:34.658Z,101165.25
2023-04-05T18:06:37.175Z,101170.50
2023-04-05T18:09:41.975Z,101172.16
2023-04-05T18:12:44.498Z,101176.56
2023-04-05T18:15:47.330Z,101184.50
2023-04-05T18:18:51.559Z,101187.25
2023-04-05T18:21:54.009Z,101189.94
2023-04-05T18:24:56.448Z,101188.22
2023-04-05T18:28:00.056Z,101185.63
2023-04-05T18:31:03.800Z,101185.69
2023-04-05T18:34:07.578Z,101188.31
2023-04-05T18:37:10.045Z,101186.63
2023-04-05T18:40:12.940Z,101186.63
2023-04-05T18:43:15.458Z,101186.66
2023-04-05T18:46:18.837Z,101193.66
2023-04-05T18:49:22.812Z,101189.38
2023-04-05T18:52:27.320Z,101192.06
2023-04-05T18:55:29.763Z,101196.44
2023-04-05T18:58:32.308Z,101198.25
2023-04-05T19:01:34.830Z,101198.22
2023-04-05T19:04:38.591Z,101199.97
